Scroll down
FLIGHT INFORMATION
KLM Royal Dutch Airlines

KLM721

At Arrival Gate

EHAM
 TBPB
DATE: 2021-02-06
GATE: F6
GATE DEPARTURE: 12:03
TAKEOFF: 12:13
DATE: 2021-02-06
GATE:  -
LANDING: 21:10
GATE ARRIVAL: 21:15
FLIGHT DATA
Crew: 
Speed: 
891 kph
Altitude: 
36,026 ft
Stage Length: 
7,121.3 km
Block Time: 
9.1 hrs
Flight Time: 
9 hrs
Fuel Used: 
62,916 kg
Cleared Route: EHAM EH084 EH045 EH036 EH072 LEKKO KUDAD WOODY NIK DENOX CIV MEDIL PITHI LESDO KOVIN KIHVI PON DITAL GODIX DIDAK KURIS TERPO AKEMO IBISU COQUE XIDAN LAPEX SEPAL 4615N 4420N 4030N 3440N 2650N DRDGE BGI RW09
TRACK DATA
50,000 ft 1,000 kts
AIRCRAFT INFO AND CUMULATIVE STATS
Aircraft Type: 
B77W
Registration: 
SELCAL: 
EKLR
MSN/LN: 
35979 / 807
Total Flights: 
7
Total Block Time: 
78.1 hrs
Total Flight Time: 
76.5 hrs
Total Fuel Used: 
564,665 kg
DATALINK LOG | Newest first | Current as of: 2021-09-21 08:40:12
LABEL SEQUENCE CONTENT Dn/Up
QD153221:15 26.4▼ Dn
QC103121:10▼ Dn
2U2743TFFF 062000Z AUTO 09013KT 9999 -RA FEW017 BKN035 BKN041 24/22 Q1015 TEMPO 10018G28KT 3500 SHRA BKN018TCU▲ Up
2U2737TBPB 062000Z 08016KT 9999 FEW024 28/19 Q1013 NOSIG▲ Up
2S2648TFFF▼ Dn
2S2647TBPB▼ Dn
2U5457TBPB 061800Z 10016KT 9999 FEW024 29/19 Q1014 NOSIG▲ Up
2U5454TFFR 061830Z AUTO 14005KT 110V170 9999 FEW028 BKN033 BKN043 25/23 Q1016 TEMPO 4000 SHRA SCT018TCU▲ Up
2U5450LPLA 061756Z AUTO 29012KT 9999 SCT026 17/13 A3021 RMK AO2 SLP233 60000 T01670126 10176 20159 56008 $▲ Up
2S5427TBPB▼ Dn
2S5426TFFR▼ Dn
2S5425LPLA▼ Dn
2U5618TFFR 061630Z AUTO 08010KT 9999 FEW028 SCT037 BKN047 28/21 Q1018 TEMPO 4000 SHRA SCT018TCU▲ Up
2U5658LPLA 061556Z AUTO 28017G21KT 9999 SCT014 17/13 A3022 RMK AO2 DZB41E50 SLP236 P0000 T01670134 $▲ Up
2S5637TFFR▼ Dn
2S5636LPLA▼ Dn
DM480952N4000.0W03000.0 16:09z FL360 N3400.0W04000.0 17:23z N2600.0W05000.0 M0.82 43.8 -59 254/73 RW09 21:00z▼ Dn
DM485742N4400.0W02000.0 14:56z FL354 N4000.0W03000.0 15:59z N3400.0W04000.0 M0.82 52.1 -58 309/47 RW09 20:49z▼ Dn
2U4623TFFR 061430Z AUTO 08010KT 060V120 9999 FEW036 SCT043 BKN054 28/21 Q1019 NOSIG▲ Up
2U4618LPLA 061356Z AUTO 29019KT 9999 BKN019 18/13 A3025 RMK AO2 PRESFR SLP246 T01750130 $▲ Up
2S4632TFFR▼ Dn
2S4631LPLA▼ Dn
UM204439CLEARED TO FL 360▲ Up
DM64429REQUEST FL 360 DUE TO A/C PERF▼ Dn
DM482612N4600.0W01500.0 14:24z FL340 N4400.0W02000.0 14:54z N4000.0W03000.0 M0.82 55.9 -56 341/76 RW09 20:48z▼ Dn
DM485342SEPAL 13:50z FL339 N4600.0W01500.0 14:24z N4400.0W02000.0 M0.82 60.0 -55 347/73 RW09 20:48z▼ Dn
2U4243TFFR 061300Z AUTO 10010KT 9999 FEW031 SCT041 BKN050 26/20 Q1019 NOSIG▲ Up
2S4231TFFR▼ Dn
2U4013LPLA 061256Z AUTO 28016KT 9999 BKN019 16/12 A3028 RMK AO2 SLP257 T01630123 $▲ Up
2S4030LPLA▼ Dn
2U3910LEAS 061300Z VRB03KT 9999 -RA BKN028 BKN044 09/05 Q1008 TEMPO 3000 RA BKN010▲ Up
2S3929LEAS▼ Dn
2U4857LEAS 061230Z 03005KT 330V100 9999 -RA FEW021 SCT038 BKN044 09/05 Q1009 TEMPO 3000 RA BKN010▲ Up
2S4839LEAS▼ Dn
2U4141TFFR 061200Z AUTO VRB01KT CAVOK 25/20 Q1018 NOSIG▲ Up
2S4133TFFR▼ Dn
2U3817LPLA 061156Z AUTO 29013KT 9999 FEW017 17/13 A3029 RMK AO2 SLP260 70001 T01650128 10165 20134 53003 $▲ Up
5U3803LPLA 061628Z 28012KT 9999 FEW020 SCT030 17/13 A3029▲ Up
2S3831LPLA▼ Dn
5S3830LPLA▼ Dn
5R3729PITHI306.3/003.6 12:36z FL330 LESDO305.9/009.6 12:39z KOVIN306.1/014.6 M0.83 69.3 -56 227/42 RW09 21:04z▼ Dn
5Z36286 FEB 21 12:36:24z / FLT DECK GOOD / ACF POS GOOD / GRND SERVICES GOOD / MAINT GOOD▼ Dn
QB140812:13▼ Dn
QA035812:03 165.3▼ Dn
2U3721EHAM 061055Z 08015KT 050V110 7000 -RA FEW004 BKN005 BKN007 03/02 Q1010 TEMPO 7000▲ Up
2S3851EHAM▼ Dn
A32245NO MATCHING FLIGHT DATA AVAILABLE FROM ANSP▲ Up
B32235EHAM TBPB EHAM A ▼ Dn
2U1856EHAM 061055Z 08015KT 050V110 7000 -RA FEW004 BKN005 BKN007 03/02 Q1010 TEMPO 7000▲ Up
A71934CLEARANCE AVAIL WITHIN 0:25 OF EDT▲ Up
B31934EHAM TBPB EHAM A ▼ Dn
2S1933EHAM▼ Dn
Q01630[LINK ACK]▲ Up
Q01630[LINK TEST]▼ Dn


AIRCRAFT HISTORY
FLIGHT DATE FLIGHT NO. ORIGIN DESTINATION CLEARED ROUTE BLOCK TIME FLIGHT TIME FUEL USED PILOT
2021-03-02KLM302EHAM FACT EHAM LOPIK VELED LUTOM BROGY TERLA LNO GESLO GOPAS DIK LIMGO SUTAL GTQ POGOL LASAT MIRGU SHARA TIRSO ARPUS TORPA MOROK GILIR GVA KOGAS VEVAR BARSO KOLON ROKNO EBORA GARPU SOVAG BUKID ERETI ETOIL CIRTA CSO TOLGA BOD ATAFA BERTI MELOG ERKEL EDAGO AS IKTAR MOLIT MIMBA KAN POLGA JOS EVGEL VONVI IKPUV AKLIS OBUDU DLA ARASI LUDNA ODOVA AYELA KOPOV EPASA RASOP KEKIR APEMI LIKAD AXULU OKLOD NIBOB UVUNI TIGIM EPMOR UDKEB EGMAT XADOP NIBUR VMO OKBIK OKDOL IXEPA DUGNU EGRIX APGEK XALVI ANSUX UNPIN IMRUG UTVUM APGAS XUDAN ETMUS ABV UVBUD ASPIK FACT13.6 hrs13.4 hrs206,868 lbAlex K.
2021-02-08KLM722TBPB EHAM TBPB FISST 2550N 3440N 4130N 4620N EVBAK RATKA DAWLY BRIPO GIBSO BEVUP ABKIM SAM HAZEL NIBDA NOVMA MID MODMI OCK KOBBI BRAIN GASBA RATLO REDFA SULUT SUGOL CI06 RW068.6 hrs8.4 hrs131,546 lbEmanuel Hagen
2021-02-06KLM721EHAM TBPB EHAM EH084 EH045 EH036 EH072 LEKKO KUDAD WOODY NIK DENOX CIV MEDIL PITHI LESDO KOVIN KIHVI PON DITAL GODIX DIDAK KURIS TERPO AKEMO IBISU COQUE XIDAN LAPEX SEPAL 4615N 4420N 4030N 3440N 2650N DRDGE BGI RW099.1 hrs9 hrs138,707 lbEmanuel Hagen
2020-12-23KLM792SBGR EHAM SBGR BCO IVRAG VUMEV UBRIR MAVMO UKAKI MOXIK OPKES PONVU BHZ ANSIX DEPOT NINSA TOMOP OBGAR MUDOL QUARU FORTI MUMLI APORT PUIDO GAVUN KODVI GAVOD PTL UKLEM GUTOI DAKAP VAMUS MOTBU MOVGA BIKOM ULTEM N2500.0W02800.0 SORAD N3500.0W02100.0 N4000.0W01800.0 GONAN EMPER GAPLI SUNFI TOFED GAJIT CPT IPRIL KOBBI BRAIN GASBA RATLO REDFA EHAM11.5 hrs11.3 hrs193,087 lbMichael Roth
2020-12-23KLM1222EHAM SBGR EHAM EH001 EH051 EH009 VALKO IDRID ABNED IBNOS XAMAN LOGAN JACKO TRIPO SABER LIVSU MANGO SIRGO GILDA MID NOVMA NIBDA HAZEL SAM KAPEX MARUK LORKU GOBUR TITUB BERAD QPR EBOMO KEREB COQUE KOLEK KORUL DEMOS ASMAR VERAM NELSO ROSTA NORED EDUMO GAMBA KENOX SAGRO DIGUN NANIK DIKEB PUNOM CARVE JOBER VADIR FLZ RODIT PUREU VAROP BISSA DALMA EGEDU XOMUK ILNOS MUGAV ILPUR HAMBU MALRA CARDO GEVMI NITGI LISBO DOKBA REINA PANAP UNIDO GAXEV MUMDI PABAV NIPKI OPRUT ESDAD MOXEP SBGR12.4 hrs12.1 hrs206,810 lbMichael Roth
2020-12-20KLM832RKSI EHAM RKSI SI707 SI713 SONJA NOPIK BINIL ANSIM DANTI GONAV AGAVO DONVO OBDIS SANKO POVAG DOBGA NUNDU MAKNO ALARA UNSEK ORAVA LC ANOBI OPIMU UKDUM ASILA UNTEN ERVEB POLHO MODUN ZAMUS GOBEZ PRING SERNA PIMIT KEMON LUTOG BAPIR AGANU GUDMI RELIK NEDAG LONKA RO USOPA SURIP NOVRA RONIK CE SOTIM SOREB PAROM NJC TETSI APRAN ULGUN OGIKA NEGNA LARTU ABGIL SORLI NETLU OGROM OSKEL SOGTE BAPES GUDES IDLIR ERSOM UMTAK ODNUS ROMUM GITOT ADLIN RUROS NEPEN MOGPI IDRAK TUBNI UMUTA BAPOK UMODI TURAL OKBES RANVA RESMO KEMET MOLOK TODNA RUTEK DEREX KOTAM EKRAL SUP ADVIS LILBI EVBED LUPUR KOPEX LANGO ALS DEMIR DEGUL GOLEN KUBAT EEL EHAM11.5 hrs11.3 hrs184,462 lbMichael Roth
2020-12-12KLM855EHAM RKSI 11.3 hrs11.1 hrs183,394 lbMichael Roth